sensor_id;sensor_type;location;lat;lon;timestamp;temperature;humidity
13686;DHT22;6915;48.296;8.874;2023-04-25T00:01:43;6.90;99.90
13686;DHT22;6915;48.296;8.874;2023-04-25T00:04:13;7.00;99.90
13686;DHT22;6915;48.296;8.874;2023-04-25T00:06:41;6.90;99.90
13686;DHT22;6915;48.296;8.874;2023-04-25T00:09:10;6.80;99.90
13686;DHT22;6915;48.296;8.874;2023-04-25T00:11:39;6.70;99.90
13686;DHT22;6915;48.296;8.874;2023-04-25T00:14:08;6.80;99.90
13686;DHT22;6915;48.296;8.874;2023-04-25T00:16:37;6.80;99.90
13686;DHT22;6915;48.296;8.874;2023-04-25T00:19:07;7.00;99.90
13686;DHT22;6915;48.296;8.874;2023-04-25T00:21:38;6.80;99.90
13686;DHT22;6915;48.296;8.874;2023-04-25T00:24:08;6.90;99.90
13686;DHT22;6915;48.296;8.874;2023-04-25T00:26:37;7.00;99.90
13686;DHT22;6915;48.296;8.874;2023-04-25T00:29:06;7.10;99.90
13686;DHT22;6915;48.296;8.874;2023-04-25T00:31:35;7.10;99.90
13686;DHT22;6915;48.296;8.874;2023-04-25T00:34:04;7.10;99.90
13686;DHT22;6915;48.296;8.874;2023-04-25T00:36:32;7.20;99.90
13686;DHT22;6915;48.296;8.874;2023-04-25T00:39:03;7.10;99.90
13686;DHT22;6915;48.296;8.874;2023-04-25T00:41:32;7.00;99.90
13686;DHT22;6915;48.296;8.874;2023-04-25T00:44:01;7.10;99.90
13686;DHT22;6915;48.296;8.874;2023-04-25T00:46:31;7.00;99.90
13686;DHT22;6915;48.296;8.874;2023-04-25T00:48:59;7.00;99.90
13686;DHT22;6915;48.296;8.874;2023-04-25T00:51:28;7.00;99.90
13686;DHT22;6915;48.296;8.874;2023-04-25T00:53:59;7.00;99.90
13686;DHT22;6915;48.296;8.874;2023-04-25T00:56:29;6.90;99.90
13686;DHT22;6915;48.296;8.874;2023-04-25T00:58:58;6.90;99.90
13686;DHT22;6915;48.296;8.874;2023-04-25T01:01:27;6.80;99.90
13686;DHT22;6915;48.296;8.874;2023-04-25T01:03:56;6.80;99.90
13686;DHT22;6915;48.296;8.874;2023-04-25T01:06:26;7.00;99.90
13686;DHT22;6915;48.296;8.874;2023-04-25T01:08:55;6.70;99.90
13686;DHT22;6915;48.296;8.874;2023-04-25T01:11:24;6.60;99.90
13686;DHT22;6915;48.296;8.874;2023-04-25T01:13:54;6.60;99.90
13686;DHT22;6915;48.296;8.874;2023-04-25T01:16:23;6.40;99.90
13686;DHT22;6915;48.296;8.874;2023-04-25T01:18:53;6.40;99.90
13686;DHT22;6915;48.296;8.874;2023-04-25T01:21:23;6.40;99.90
13686;DHT22;6915;48.296;8.874;2023-04-25T01:23:54;6.50;99.90
13686;DHT22;6915;48.296;8.874;2023-04-25T01:26:23;6.50;99.90
13686;DHT22;6915;48.296;8.874;2023-04-25T01:28:53;6.50;99.90
13686;DHT22;6915;48.296;8.874;2023-04-25T01:31:22;6.60;99.90
13686;DHT22;6915;48.296;8.874;2023-04-25T01:33:50;6.60;99.90
13686;DHT22;6915;48.296;8.874;2023-04-25T01:36:20;6.40;99.90
13686;DHT22;6915;48.296;8.874;2023-04-25T01:38:50;6.40;99.90
13686;DHT22;6915;48.296;8.874;2023-04-25T01:41:19;6.40;99.90
13686;DHT22;6915;48.296;8.874;2023-04-25T01:43:50;6.40;99.90
13686;DHT22;6915;48.296;8.874;2023-04-25T01:46:19;6.50;99.90
13686;DHT22;6915;48.296;8.874;2023-04-25T01:48:47;6.40;99.90
13686;DHT22;6915;48.296;8.874;2023-04-25T01:51:17;6.40;99.90
13686;DHT22;6915;48.296;8.874;2023-04-25T01:53:46;6.40;99.90
13686;DHT22;6915;48.296;8.874;2023-04-25T01:56:15;6.40;99.90
13686;DHT22;6915;48.296;8.874;2023-04-25T01:58:46;6.40;99.90
13686;DHT22;6915;48.296;8.874;2023-04-25T02:01:15;6.40;99.90
13686;DHT22;6915;48.296;8.874;2023-04-25T02:03:45;6.40;99.90
13686;DHT22;6915;48.296;8.874;2023-04-25T02:06:13;6.40;99.90
13686;DHT22;6915;48.296;8.874;2023-04-25T02:08:42;6.30;99.90
13686;DHT22;6915;48.296;8.874;2023-04-25T02:11:10;6.30;99.90
13686;DHT22;6915;48.296;8.874;2023-04-25T02:13:40;6.30;99.90
13686;DHT22;6915;48.296;8.874;2023-04-25T02:16:09;6.20;99.90
13686;DHT22;6915;48.296;8.874;2023-04-25T02:18:38;6.20;99.90
13686;DHT22;6915;48.296;8.874;2023-04-25T02:21:06;6.30;99.90
13686;DHT22;6915;48.296;8.874;2023-04-25T02:23:35;6.30;99.90
13686;DHT22;6915;48.296;8.874;2023-04-25T02:26:04;6.30;99.90
13686;DHT22;6915;48.296;8.874;2023-04-25T02:28:32;6.20;99.90
13686;DHT22;6915;48.296;8.874;2023-04-25T02:31:02;6.20;99.90
13686;DHT22;6915;48.296;8.874;2023-04-25T02:33:31;6.20;99.90
13686;DHT22;6915;48.296;8.874;2023-04-25T02:36:00;6.20;99.90
13686;DHT22;6915;48.296;8.874;2023-04-25T02:38:28;6.30;99.90
13686;DHT22;6915;48.296;8.874;2023-04-25T02:40:57;6.10;99.90
13686;DHT22;6915;48.296;8.874;2023-04-25T02:43:25;6.00;99.90
13686;DHT22;6915;48.296;8.874;2023-04-25T02:45:54;5.90;99.90
13686;DHT22;6915;48.296;8.874;2023-04-25T02:48:24;5.80;99.90
13686;DHT22;6915;48.296;8.874;2023-04-25T02:50:53;5.60;99.90
13686;DHT22;6915;48.296;8.874;2023-04-25T02:53:20;5.50;99.90
13686;DHT22;6915;48.296;8.874;2023-04-25T02:55:48;5.60;99.90
13686;DHT22;6915;48.296;8.874;2023-04-25T02:58:19;5.40;99.90
13686;DHT22;6915;48.296;8.874;2023-04-25T03:00:48;5.50;99.90
13686;DHT22;6915;48.296;8.874;2023-04-25T03:03:16;5.50;99.90
13686;DHT22;6915;48.296;8.874;2023-04-25T03:05:50;5.50;99.90
13686;DHT22;6915;48.296;8.874;2023-04-25T03:08:19;5.50;99.90
13686;DHT22;6915;48.296;8.874;2023-04-25T03:10:47;5.50;99.90
13686;DHT22;6915;48.296;8.874;2023-04-25T03:13:17;5.50;99.90
13686;DHT22;6915;48.296;8.874;2023-04-25T03:15:46;5.60;99.90
13686;DHT22;6915;48.296;8.874;2023-04-25T03:18:14;5.60;99.90
13686;DHT22;6915;48.296;8.874;2023-04-25T03:20:43;5.50;99.90
13686;DHT22;6915;48.296;8.874;2023-04-25T03:23:13;5.50;99.90
13686;DHT22;6915;48.296;8.874;2023-04-25T03:25:42;5.50;99.90
13686;DHT22;6915;48.296;8.874;2023-04-25T03:28:13;5.50;99.90
13686;DHT22;6915;48.296;8.874;2023-04-25T03:30:41;5.40;99.90
13686;DHT22;6915;48.296;8.874;2023-04-25T03:33:10;5.50;99.90
13686;DHT22;6915;48.296;8.874;2023-04-25T03:35:38;5.40;99.90
13686;DHT22;6915;48.296;8.874;2023-04-25T03:38:09;5.40;99.90
13686;DHT22;6915;48.296;8.874;2023-04-25T03:40:39;5.40;99.90
13686;DHT22;6915;48.296;8.874;2023-04-25T03:43:08;5.50;99.90
13686;DHT22;6915;48.296;8.874;2023-04-25T03:45:36;5.40;99.90
13686;DHT22;6915;48.296;8.874;2023-04-25T03:48:05;5.30;99.90
13686;DHT22;6915;48.296;8.874;2023-04-25T03:50:34;5.30;99.90
13686;DHT22;6915;48.296;8.874;2023-04-25T03:53:03;5.20;99.90
13686;DHT22;6915;48.296;8.874;2023-04-25T03:55:32;5.20;99.90
13686;DHT22;6915;48.296;8.874;2023-04-25T03:58:02;5.20;99.90
13686;DHT22;6915;48.296;8.874;2023-04-25T04:00:30;5.10;99.90
13686;DHT22;6915;48.296;8.874;2023-04-25T04:02:59;5.20;99.90
13686;DHT22;6915;48.296;8.874;2023-04-25T04:05:28;5.20;99.90
13686;DHT22;6915;48.296;8.874;2023-04-25T04:07:59;5.10;99.90
13686;DHT22;6915;48.296;8.874;2023-04-25T04:10:27;5.10;99.90
13686;DHT22;6915;48.296;8.874;2023-04-25T04:12:56;5.10;99.90
13686;DHT22;6915;48.296;8.874;2023-04-25T04:15:26;4.90;99.90
13686;DHT22;6915;48.296;8.874;2023-04-25T04:17:54;5.10;99.90
13686;DHT22;6915;48.296;8.874;2023-04-25T04:20:23;5.00;99.90
13686;DHT22;6915;48.296;8.874;2023-04-25T04:22:53;5.00;99.90
13686;DHT22;6915;48.296;8.874;2023-04-25T04:25:22;4.90;99.90
13686;DHT22;6915;48.296;8.874;2023-04-25T04:27:51;4.90;99.90
13686;DHT22;6915;48.296;8.874;2023-04-25T04:30:21;5.10;99.90
13686;DHT22;6915;48.296;8.874;2023-04-25T04:32:52;4.80;99.90
13686;DHT22;6915;48.296;8.874;2023-04-25T04:35:21;4.60;99.90
13686;DHT22;6915;48.296;8.874;2023-04-25T04:37:49;4.80;99.90
13686;DHT22;6915;48.296;8.874;2023-04-25T04:40:20;4.80;99.90
13686;DHT22;6915;48.296;8.874;2023-04-25T04:42:49;5.00;99.90
13686;DHT22;6915;48.296;8.874;2023-04-25T04:45:18;5.20;99.90
13686;DHT22;6915;48.296;8.874;2023-04-25T04:47:48;5.30;99.90
13686;DHT22;6915;48.296;8.874;2023-04-25T04:50:18;5.40;99.90
13686;DHT22;6915;48.296;8.874;2023-04-25T04:52:47;5.40;99.90
13686;DHT22;6915;48.296;8.874;2023-04-25T04:55:16;5.40;99.90
13686;DHT22;6915;48.296;8.874;2023-04-25T04:57:44;5.40;99.90
13686;DHT22;6915;48.296;8.874;2023-04-25T05:00:14;5.30;99.90
13686;DHT22;6915;48.296;8.874;2023-04-25T05:02:43;5.30;99.90
13686;DHT22;6915;48.296;8.874;2023-04-25T05:05:14;5.30;99.90
13686;DHT22;6915;48.296;8.874;2023-04-25T05:07:44;5.40;99.90
13686;DHT22;6915;48.296;8.874;2023-04-25T05:10:12;5.40;99.90
13686;DHT22;6915;48.296;8.874;2023-04-25T05:12:41;5.50;99.90
13686;DHT22;6915;48.296;8.874;2023-04-25T05:15:10;5.60;99.90
13686;DHT22;6915;48.296;8.874;2023-04-25T05:17:38;5.60;99.90
13686;DHT22;6915;48.296;8.874;2023-04-25T05:20:06;5.90;99.90
13686;DHT22;6915;48.296;8.874;2023-04-25T05:22:36;5.70;99.90
13686;DHT22;6915;48.296;8.874;2023-04-25T05:25:07;5.80;99.90
13686;DHT22;6915;48.296;8.874;2023-04-25T05:27:36;5.80;99.90
13686;DHT22;6915;48.296;8.874;2023-04-25T05:30:05;5.70;99.90
13686;DHT22;6915;48.296;8.874;2023-04-25T05:32:35;5.90;99.90
13686;DHT22;6915;48.296;8.874;2023-04-25T05:35:03;5.90;99.90
13686;DHT22;6915;48.296;8.874;2023-04-25T05:37:33;6.00;99.90
13686;DHT22;6915;48.296;8.874;2023-04-25T05:40:04;6.00;99.90
13686;DHT22;6915;48.296;8.874;2023-04-25T05:42:35;6.10;99.90
13686;DHT22;6915;48.296;8.874;2023-04-25T05:45:05;6.20;99.90
13686;DHT22;6915;48.296;8.874;2023-04-25T05:47:34;6.20;99.90
13686;DHT22;6915;48.296;8.874;2023-04-25T05:50:03;6.20;99.90
13686;DHT22;6915;48.296;8.874;2023-04-25T05:52:31;6.30;99.90
13686;DHT22;6915;48.296;8.874;2023-04-25T05:55:01;6.30;99.90
13686;DHT22;6915;48.296;8.874;2023-04-25T05:57:31;6.40;99.90
13686;DHT22;6915;48.296;8.874;2023-04-25T06:00:00;6.40;99.90
13686;DHT22;6915;48.296;8.874;2023-04-25T06:02:29;6.60;99.90
13686;DHT22;6915;48.296;8.874;2023-04-25T06:04:58;6.40;99.90
13686;DHT22;6915;48.296;8.874;2023-04-25T06:07:29;6.50;99.90
13686;DHT22;6915;48.296;8.874;2023-04-25T06:09:58;6.50;99.90
13686;DHT22;6915;48.296;8.874;2023-04-25T06:12:27;6.50;99.90
13686;DHT22;6915;48.296;8.874;2023-04-25T06:14:57;6.60;99.90
13686;DHT22;6915;48.296;8.874;2023-04-25T06:17:26;6.60;99.90
13686;DHT22;6915;48.296;8.874;2023-04-25T06:19:54;6.70;99.90
13686;DHT22;6915;48.296;8.874;2023-04-25T06:22:23;6.70;99.90
13686;DHT22;6915;48.296;8.874;2023-04-25T06:24:52;6.80;99.90
13686;DHT22;6915;48.296;8.874;2023-04-25T06:27:20;6.90;99.90
13686;DHT22;6915;48.296;8.874;2023-04-25T06:29:49;7.00;99.90
13686;DHT22;6915;48.296;8.874;2023-04-25T06:32:20;7.10;99.90
13686;DHT22;6915;48.296;8.874;2023-04-25T06:34:49;7.00;99.90
13686;DHT22;6915;48.296;8.874;2023-04-25T06:37:18;7.00;99.90
13686;DHT22;6915;48.296;8.874;2023-04-25T06:39:47;7.00;99.90
13686;DHT22;6915;48.296;8.874;2023-04-25T06:42:17;7.00;99.90
13686;DHT22;6915;48.296;8.874;2023-04-25T06:44:46;7.10;99.90
13686;DHT22;6915;48.296;8.874;2023-04-25T06:47:14;7.10;99.90
13686;DHT22;6915;48.296;8.874;2023-04-25T06:49:44;7.20;99.90
13686;DHT22;6915;48.296;8.874;2023-04-25T06:52:13;7.30;99.90
13686;DHT22;6915;48.296;8.874;2023-04-25T06:54:42;7.50;99.90
13686;DHT22;6915;48.296;8.874;2023-04-25T06:57:10;7.40;99.90
13686;DHT22;6915;48.296;8.874;2023-04-25T06:59:39;7.50;99.90
13686;DHT22;6915;48.296;8.874;2023-04-25T07:02:07;7.50;99.90
13686;DHT22;6915;48.296;8.874;2023-04-25T07:04:36;7.50;99.90
13686;DHT22;6915;48.296;8.874;2023-04-25T07:07:07;7.30;99.90
13686;DHT22;6915;48.296;8.874;2023-04-25T07:09:36;7.40;99.90
13686;DHT22;6915;48.296;8.874;2023-04-25T07:12:05;7.50;99.90
13686;DHT22;6915;48.296;8.874;2023-04-25T07:14:33;7.60;99.90
13686;DHT22;6915;48.296;8.874;2023-04-25T07:17:02;7.70;99.90
13686;DHT22;6915;48.296;8.874;2023-04-25T07:19:33;7.70;99.90
13686;DHT22;6915;48.296;8.874;2023-04-25T07:22:02;7.70;99.90
13686;DHT22;6915;48.296;8.874;2023-04-25T07:24:32;7.50;99.90
13686;DHT22;6915;48.296;8.874;2023-04-25T07:27:01;7.60;99.90
13686;DHT22;6915;48.296;8.874;2023-04-25T07:29:30;7.50;99.90
13686;DHT22;6915;48.296;8.874;2023-04-25T07:31:59;7.40;99.90
13686;DHT22;6915;48.296;8.874;2023-04-25T07:34:28;7.40;99.90
13686;DHT22;6915;48.296;8.874;2023-04-25T07:36:57;7.30;99.90
13686;DHT22;6915;48.296;8.874;2023-04-25T07:39:26;7.30;99.90
13686;DHT22;6915;48.296;8.874;2023-04-25T07:41:57;7.50;99.90
13686;DHT22;6915;48.296;8.874;2023-04-25T07:44:27;7.40;99.90
13686;DHT22;6915;48.296;8.874;2023-04-25T07:46:57;7.60;99.90
13686;DHT22;6915;48.296;8.874;2023-04-25T07:49:26;7.60;99.90
13686;DHT22;6915;48.296;8.874;2023-04-25T07:51:54;7.40;99.90
13686;DHT22;6915;48.296;8.874;2023-04-25T07:54:23;7.60;99.90
13686;DHT22;6915;48.296;8.874;2023-04-25T07:56:52;7.60;99.90
13686;DHT22;6915;48.296;8.874;2023-04-25T07:59:22;7.50;99.90
13686;DHT22;6915;48.296;8.874;2023-04-25T08:01:51;7.30;99.90
13686;DHT22;6915;48.296;8.874;2023-04-25T08:04:19;7.20;99.90
13686;DHT22;6915;48.296;8.874;2023-04-25T08:06:49;7.20;99.90
13686;DHT22;6915;48.296;8.874;2023-04-25T08:09:17;6.90;99.90
13686;DHT22;6915;48.296;8.874;2023-04-25T08:11:46;6.90;99.90
13686;DHT22;6915;48.296;8.874;2023-04-25T08:14:15;6.70;99.90
13686;DHT22;6915;48.296;8.874;2023-04-25T08:16:46;6.80;99.90
13686;DHT22;6915;48.296;8.874;2023-04-25T08:19:14;6.60;99.90
13686;DHT22;6915;48.296;8.874;2023-04-25T08:21:43;6.60;99.90
13686;DHT22;6915;48.296;8.874;2023-04-25T08:24:12;6.40;99.90
13686;DHT22;6915;48.296;8.874;2023-04-25T08:26:40;6.10;99.90
13686;DHT22;6915;48.296;8.874;2023-04-25T08:29:09;5.80;99.90
13686;DHT22;6915;48.296;8.874;2023-04-25T08:31:38;5.70;99.90
13686;DHT22;6915;48.296;8.874;2023-04-25T08:34:08;5.60;99.90
13686;DHT22;6915;48.296;8.874;2023-04-25T08:36:38;5.50;99.90
13686;DHT22;6915;48.296;8.874;2023-04-25T08:39:07;5.40;99.90
13686;DHT22;6915;48.296;8.874;2023-04-25T08:41:38;5.30;99.90
13686;DHT22;6915;48.296;8.874;2023-04-25T08:44:10;5.20;99.90
13686;DHT22;6915;48.296;8.874;2023-04-25T08:46:40;5.10;99.90
13686;DHT22;6915;48.296;8.874;2023-04-25T08:49:10;5.10;99.90
13686;DHT22;6915;48.296;8.874;2023-04-25T08:51:46;5.10;99.90
13686;DHT22;6915;48.296;8.874;2023-04-25T08:54:16;5.20;99.90
13686;DHT22;6915;48.296;8.874;2023-04-25T08:56:47;5.00;99.90
13686;DHT22;6915;48.296;8.874;2023-04-25T08:59:16;5.00;99.90
13686;DHT22;6915;48.296;8.874;2023-04-25T09:01:45;4.90;99.90
13686;DHT22;6915;48.296;8.874;2023-04-25T09:04:16;5.00;99.90
13686;DHT22;6915;48.296;8.874;2023-04-25T09:06:47;4.90;99.90
13686;DHT22;6915;48.296;8.874;2023-04-25T09:09:16;4.80;99.90
13686;DHT22;6915;48.296;8.874;2023-04-25T09:11:46;4.80;99.90
13686;DHT22;6915;48.296;8.874;2023-04-25T09:14:16;4.70;99.90
13686;DHT22;6915;48.296;8.874;2023-04-25T09:17:09;4.40;99.90
13686;DHT22;6915;48.296;8.874;2023-04-25T09:19:41;4.40;99.90
13686;DHT22;6915;48.296;8.874;2023-04-25T09:22:13;4.20;99.90
13686;DHT22;6915;48.296;8.874;2023-04-25T09:37:35;3.80;99.90
13686;DHT22;6915;48.296;8.874;2023-04-25T09:40:06;3.90;99.90
13686;DHT22;6915;48.296;8.874;2023-04-25T09:42:35;3.90;99.90
13686;DHT22;6915;48.296;8.874;2023-04-25T09:45:06;3.90;99.90
13686;DHT22;6915;48.296;8.874;2023-04-25T09:47:39;4.00;99.90
13686;DHT22;6915;48.296;8.874;2023-04-25T09:50:16;4.20;99.90
13686;DHT22;6915;48.296;8.874;2023-04-25T09:52:47;4.30;99.90
13686;DHT22;6915;48.296;8.874;2023-04-25T09:55:30;4.40;99.90
13686;DHT22;6915;48.296;8.874;2023-04-25T09:58:03;4.40;99.90
13686;DHT22;6915;48.296;8.874;2023-04-25T10:00:33;4.40;99.90
13686;DHT22;6915;48.296;8.874;2023-04-25T10:03:03;4.30;99.90
13686;DHT22;6915;48.296;8.874;2023-04-25T10:05:34;4.30;99.90
13686;DHT22;6915;48.296;8.874;2023-04-25T10:08:07;4.40;99.90
13686;DHT22;6915;48.296;8.874;2023-04-25T10:10:45;4.30;99.90
13686;DHT22;6915;48.296;8.874;2023-04-25T10:13:15;4.20;99.90
13686;DHT22;6915;48.296;8.874;2023-04-25T10:15:46;4.20;99.90
13686;DHT22;6915;48.296;8.874;2023-04-25T10:18:15;4.30;99.90
13686;DHT22;6915;48.296;8.874;2023-04-25T10:20:45;4.40;99.90
13686;DHT22;6915;48.296;8.874;2023-04-25T10:23:16;4.60;99.90
13686;DHT22;6915;48.296;8.874;2023-04-25T10:25:46;4.60;99.90
13686;DHT22;6915;48.296;8.874;2023-04-25T10:28:15;4.90;99.90
13686;DHT22;6915;48.296;8.874;2023-04-25T10:31:02;5.00;99.90
13686;DHT22;6915;48.296;8.874;2023-04-25T10:33:36;5.20;99.90
13686;DHT22;6915;48.296;8.874;2023-04-25T10:36:17;5.10;99.90
13686;DHT22;6915;48.296;8.874;2023-04-25T10:38:48;5.10;99.90
13686;DHT22;6915;48.296;8.874;2023-04-25T10:41:20;5.20;99.90
13686;DHT22;6915;48.296;8.874;2023-04-25T10:43:58;5.40;99.90
13686;DHT22;6915;48.296;8.874;2023-04-25T10:46:28;5.40;99.90
13686;DHT22;6915;48.296;8.874;2023-04-25T10:48:59;5.20;99.90
13686;DHT22;6915;48.296;8.874;2023-04-25T10:51:30;5.30;99.90
13686;DHT22;6915;48.296;8.874;2023-04-25T10:54:02;5.30;99.90
13686;DHT22;6915;48.296;8.874;2023-04-25T10:56:32;5.40;99.90
13686;DHT22;6915;48.296;8.874;2023-04-25T10:59:08;5.50;99.90
13686;DHT22;6915;48.296;8.874;2023-04-25T11:01:38;5.70;99.90
13686;DHT22;6915;48.296;8.874;2023-04-25T11:04:08;5.80;99.90
13686;DHT22;6915;48.296;8.874;2023-04-25T11:06:58;6.00;99.90
13686;DHT22;6915;48.296;8.874;2023-04-25T11:09:30;5.90;99.90
13686;DHT22;6915;48.296;8.874;2023-04-25T11:12:01;5.80;99.90
13686;DHT22;6915;48.296;8.874;2023-04-25T11:14:30;6.10;99.90
13686;DHT22;6915;48.296;8.874;2023-04-25T11:17:00;6.20;99.90
13686;DHT22;6915;48.296;8.874;2023-04-25T11:19:29;6.20;99.90
13686;DHT22;6915;48.296;8.874;2023-04-25T11:21:59;6.20;99.90
13686;DHT22;6915;48.296;8.874;2023-04-25T11:24:31;6.30;99.90
13686;DHT22;6915;48.296;8.874;2023-04-25T11:27:03;6.60;99.90
13686;DHT22;6915;48.296;8.874;2023-04-25T11:29:33;6.70;99.90
13686;DHT22;6915;48.296;8.874;2023-04-25T11:32:02;6.90;99.90
13686;DHT22;6915;48.296;8.874;2023-04-25T11:34:33;7.00;99.90
13686;DHT22;6915;48.296;8.874;2023-04-25T11:37:02;7.10;99.90
13686;DHT22;6915;48.296;8.874;2023-04-25T11:39:32;7.20;99.90
13686;DHT22;6915;48.296;8.874;2023-04-25T11:42:01;7.40;99.90
13686;DHT22;6915;48.296;8.874;2023-04-25T11:44:32;7.40;99.90
13686;DHT22;6915;48.296;8.874;2023-04-25T11:47:02;7.50;99.90
13686;DHT22;6915;48.296;8.874;2023-04-25T11:49:32;7.20;99.90
13686;DHT22;6915;48.296;8.874;2023-04-25T11:52:02;7.10;99.90
13686;DHT22;6915;48.296;8.874;2023-04-25T11:54:33;7.00;99.90
13686;DHT22;6915;48.296;8.874;2023-04-25T11:57:03;7.40;99.90
13686;DHT22;6915;48.296;8.874;2023-04-25T11:59:32;7.50;99.90
13686;DHT22;6915;48.296;8.874;2023-04-25T12:02:01;7.50;99.90
13686;DHT22;6915;48.296;8.874;2023-04-25T12:04:32;7.60;99.90
13686;DHT22;6915;48.296;8.874;2023-04-25T12:07:00;7.70;99.90
13686;DHT22;6915;48.296;8.874;2023-04-25T12:09:30;7.60;99.90
13686;DHT22;6915;48.296;8.874;2023-04-25T12:12:01;7.50;99.90
13686;DHT22;6915;48.296;8.874;2023-04-25T12:14:32;7.20;99.90
13686;DHT22;6915;48.296;8.874;2023-04-25T12:17:03;7.10;99.90
13686;DHT22;6915;48.296;8.874;2023-04-25T12:19:36;7.20;99.90
13686;DHT22;6915;48.296;8.874;2023-04-25T12:22:19;7.20;99.90
13686;DHT22;6915;48.296;8.874;2023-04-25T12:24:48;7.30;99.90
13686;DHT22;6915;48.296;8.874;2023-04-25T12:27:19;7.40;99.90
13686;DHT22;6915;48.296;8.874;2023-04-25T12:29:55;7.20;99.90
13686;DHT22;6915;48.296;8.874;2023-04-25T12:32:25;7.10;99.90
13686;DHT22;6915;48.296;8.874;2023-04-25T12:34:53;7.10;99.90
13686;DHT22;6915;48.296;8.874;2023-04-25T12:37:23;6.90;99.90
13686;DHT22;6915;48.296;8.874;2023-04-25T12:39:51;6.80;99.90
13686;DHT22;6915;48.296;8.874;2023-04-25T12:42:21;6.90;99.90
13686;DHT22;6915;48.296;8.874;2023-04-25T12:44:50;7.00;99.90
13686;DHT22;6915;48.296;8.874;2023-04-25T12:47:19;7.20;99.90
13686;DHT22;6915;48.296;8.874;2023-04-25T12:49:48;7.20;99.90
13686;DHT22;6915;48.296;8.874;2023-04-25T12:52:18;7.40;99.90
13686;DHT22;6915;48.296;8.874;2023-04-25T12:54:47;7.50;99.90
13686;DHT22;6915;48.296;8.874;2023-04-25T12:57:16;7.60;99.90
13686;DHT22;6915;48.296;8.874;2023-04-25T12:59:46;7.70;99.90
13686;DHT22;6915;48.296;8.874;2023-04-25T13:02:15;7.90;99.90
13686;DHT22;6915;48.296;8.874;2023-04-25T13:04:44;8.00;99.90
13686;DHT22;6915;48.296;8.874;2023-04-25T13:07:13;7.90;99.90
13686;DHT22;6915;48.296;8.874;2023-04-25T13:09:43;8.10;99.90
13686;DHT22;6915;48.296;8.874;2023-04-25T13:12:12;8.00;99.90
13686;DHT22;6915;48.296;8.874;2023-04-25T13:14:41;8.10;99.90
13686;DHT22;6915;48.296;8.874;2023-04-25T13:17:12;8.20;99.90
13686;DHT22;6915;48.296;8.874;2023-04-25T13:19:40;8.40;99.90
13686;DHT22;6915;48.296;8.874;2023-04-25T13:22:09;8.40;99.90
13686;DHT22;6915;48.296;8.874;2023-04-25T13:24:38;8.40;99.90
13686;DHT22;6915;48.296;8.874;2023-04-25T13:27:07;8.40;99.90
13686;DHT22;6915;48.296;8.874;2023-04-25T13:29:36;8.30;99.90
13686;DHT22;6915;48.296;8.874;2023-04-25T13:32:08;8.60;99.90
13686;DHT22;6915;48.296;8.874;2023-04-25T13:34:38;8.50;99.90
13686;DHT22;6915;48.296;8.874;2023-04-25T13:37:07;7.60;99.90
13686;DHT22;6915;48.296;8.874;2023-04-25T13:39:35;7.30;99.90
13686;DHT22;6915;48.296;8.874;2023-04-25T13:42:05;6.70;99.90
13686;DHT22;6915;48.296;8.874;2023-04-25T13:44:34;6.20;99.90
13686;DHT22;6915;48.296;8.874;2023-04-25T13:47:02;6.10;99.90
13686;DHT22;6915;48.296;8.874;2023-04-25T13:49:31;5.90;99.90
13686;DHT22;6915;48.296;8.874;2023-04-25T13:52:01;6.20;99.90
13686;DHT22;6915;48.296;8.874;2023-04-25T13:54:30;6.10;99.90
13686;DHT22;6915;48.296;8.874;2023-04-25T13:56:59;6.20;99.90
13686;DHT22;6915;48.296;8.874;2023-04-25T13:59:29;6.10;99.90
13686;DHT22;6915;48.296;8.874;2023-04-25T14:01:58;6.10;99.90
13686;DHT22;6915;48.296;8.874;2023-04-25T14:04:27;6.00;99.90
13686;DHT22;6915;48.296;8.874;2023-04-25T14:06:56;6.10;99.90
13686;DHT22;6915;48.296;8.874;2023-04-25T14:09:26;6.10;99.90
13686;DHT22;6915;48.296;8.874;2023-04-25T14:11:55;6.10;99.90
13686;DHT22;6915;48.296;8.874;2023-04-25T14:14:24;6.20;99.90
13686;DHT22;6915;48.296;8.874;2023-04-25T14:16:54;6.40;99.90
13686;DHT22;6915;48.296;8.874;2023-04-25T14:19:26;6.70;99.90
13686;DHT22;6915;48.296;8.874;2023-04-25T14:21:56;7.20;99.90
13686;DHT22;6915;48.296;8.874;2023-04-25T14:24:26;7.20;99.90
13686;DHT22;6915;48.296;8.874;2023-04-25T14:26:55;7.50;99.90
13686;DHT22;6915;48.296;8.874;2023-04-25T14:29:23;7.60;99.90
13686;DHT22;6915;48.296;8.874;2023-04-25T14:31:52;7.60;99.90
13686;DHT22;6915;48.296;8.874;2023-04-25T14:34:21;7.40;99.90
13686;DHT22;6915;48.296;8.874;2023-04-25T14:36:50;7.30;99.90
13686;DHT22;6915;48.296;8.874;2023-04-25T14:39:19;7.30;99.90
13686;DHT22;6915;48.296;8.874;2023-04-25T14:41:49;7.30;99.90
13686;DHT22;6915;48.296;8.874;2023-04-25T14:44:18;7.00;99.90
13686;DHT22;6915;48.296;8.874;2023-04-25T14:46:46;7.00;99.90
13686;DHT22;6915;48.296;8.874;2023-04-25T14:49:15;7.10;99.90
13686;DHT22;6915;48.296;8.874;2023-04-25T14:51:43;7.20;99.90
13686;DHT22;6915;48.296;8.874;2023-04-25T14:54:12;7.40;99.90
13686;DHT22;6915;48.296;8.874;2023-04-25T14:56:41;7.40;99.90
13686;DHT22;6915;48.296;8.874;2023-04-25T14:59:11;7.30;99.90
13686;DHT22;6915;48.296;8.874;2023-04-25T15:01:39;7.30;99.90
13686;DHT22;6915;48.296;8.874;2023-04-25T15:04:08;7.60;99.90
13686;DHT22;6915;48.296;8.874;2023-04-25T15:06:37;7.70;99.90
13686;DHT22;6915;48.296;8.874;2023-04-25T15:09:07;7.70;99.90
13686;DHT22;6915;48.296;8.874;2023-04-25T15:11:37;7.70;99.90
13686;DHT22;6915;48.296;8.874;2023-04-25T15:14:06;7.60;99.90
13686;DHT22;6915;48.296;8.874;2023-04-25T15:16:36;7.70;99.90
13686;DHT22;6915;48.296;8.874;2023-04-25T15:19:05;7.70;99.90
13686;DHT22;6915;48.296;8.874;2023-04-25T15:21:34;7.70;99.90
13686;DHT22;6915;48.296;8.874;2023-04-25T15:24:03;7.80;99.90
13686;DHT22;6915;48.296;8.874;2023-04-25T15:26:32;7.90;99.90
13686;DHT22;6915;48.296;8.874;2023-04-25T15:29:01;7.90;99.90
13686;DHT22;6915;48.296;8.874;2023-04-25T15:31:30;7.90;99.90
13686;DHT22;6915;48.296;8.874;2023-04-25T15:34:01;7.90;99.90
13686;DHT22;6915;48.296;8.874;2023-04-25T15:36:29;7.80;99.90
13686;DHT22;6915;48.296;8.874;2023-04-25T15:38:58;7.80;99.90
13686;DHT22;6915;48.296;8.874;2023-04-25T15:41:27;7.90;99.90
13686;DHT22;6915;48.296;8.874;2023-04-25T15:43:56;7.90;99.90
13686;DHT22;6915;48.296;8.874;2023-04-25T15:46:27;8.20;99.90
13686;DHT22;6915;48.296;8.874;2023-04-25T15:51:32;8.70;99.90
13686;DHT22;6915;48.296;8.874;2023-04-25T15:54:01;8.90;99.90
13686;DHT22;6915;48.296;8.874;2023-04-25T15:56:30;9.20;99.90
13686;DHT22;6915;48.296;8.874;2023-04-25T15:58:59;9.30;99.90
13686;DHT22;6915;48.296;8.874;2023-04-25T16:01:28;9.40;99.90
13686;DHT22;6915;48.296;8.874;2023-04-25T16:03:57;9.50;99.90
13686;DHT22;6915;48.296;8.874;2023-04-25T16:06:26;9.90;99.90
13686;DHT22;6915;48.296;8.874;2023-04-25T16:08:56;10.00;99.90
13686;DHT22;6915;48.296;8.874;2023-04-25T16:11:25;9.90;99.90
13686;DHT22;6915;48.296;8.874;2023-04-25T16:13:54;9.60;99.90
13686;DHT22;6915;48.296;8.874;2023-04-25T16:16:22;9.50;99.90
13686;DHT22;6915;48.296;8.874;2023-04-25T16:18:51;9.30;99.90
13686;DHT22;6915;48.296;8.874;2023-04-25T16:21:20;9.10;99.90
13686;DHT22;6915;48.296;8.874;2023-04-25T16:23:48;9.20;99.90
13686;DHT22;6915;48.296;8.874;2023-04-25T16:26:18;9.30;99.90
13686;DHT22;6915;48.296;8.874;2023-04-25T16:28:48;9.50;99.90
13686;DHT22;6915;48.296;8.874;2023-04-25T16:31:17;9.80;99.90
13686;DHT22;6915;48.296;8.874;2023-04-25T16:33:46;10.00;99.90